sensor_id;sensor_type;location;lat;lon;timestamp;temperature;humidity
15357;DHT22;7778;48.792;9.260;2023-04-23T00:02:26;14.70;99.90
15357;DHT22;7778;48.792;9.260;2023-04-23T00:05:14;14.70;99.90
15357;DHT22;7778;48.792;9.260;2023-04-23T00:08:01;14.60;99.90
15357;DHT22;7778;48.792;9.260;2023-04-23T00:10:49;14.60;99.90
15357;DHT22;7778;48.792;9.260;2023-04-23T00:13:36;14.60;99.90
15357;DHT22;7778;48.792;9.260;2023-04-23T00:16:22;14.50;99.90
15357;DHT22;7778;48.792;9.260;2023-04-23T00:19:09;14.50;99.90
15357;DHT22;7778;48.792;9.260;2023-04-23T00:21:54;14.50;99.90
15357;DHT22;7778;48.792;9.260;2023-04-23T00:24:40;14.40;99.90
15357;DHT22;7778;48.792;9.260;2023-04-23T00:27:27;14.50;99.90
15357;DHT22;7778;48.792;9.260;2023-04-23T00:30:13;14.50;99.90
15357;DHT22;7778;48.792;9.260;2023-04-23T00:33:00;14.50;99.90
15357;DHT22;7778;48.792;9.260;2023-04-23T00:35:45;14.40;99.90
15357;DHT22;7778;48.792;9.260;2023-04-23T00:38:31;14.40;99.90
15357;DHT22;7778;48.792;9.260;2023-04-23T00:41:17;14.40;99.90
15357;DHT22;7778;48.792;9.260;2023-04-23T00:44:05;14.30;99.90
15357;DHT22;7778;48.792;9.260;2023-04-23T00:46:52;14.20;99.90
15357;DHT22;7778;48.792;9.260;2023-04-23T00:49:41;14.20;99.90
15357;DHT22;7778;48.792;9.260;2023-04-23T00:52:27;14.20;99.90
15357;DHT22;7778;48.792;9.260;2023-04-23T00:55:13;14.20;99.90
15357;DHT22;7778;48.792;9.260;2023-04-23T00:57:59;14.30;99.90
15357;DHT22;7778;48.792;9.260;2023-04-23T01:00:46;14.20;99.90
15357;DHT22;7778;48.792;9.260;2023-04-23T01:03:35;14.10;99.90
15357;DHT22;7778;48.792;9.260;2023-04-23T01:06:21;14.10;99.90
15357;DHT22;7778;48.792;9.260;2023-04-23T01:09:08;14.00;99.90
15357;DHT22;7778;48.792;9.260;2023-04-23T01:11:56;14.00;99.90
15357;DHT22;7778;48.792;9.260;2023-04-23T01:14:42;13.90;99.90
15357;DHT22;7778;48.792;9.260;2023-04-23T01:17:29;13.80;99.90
15357;DHT22;7778;48.792;9.260;2023-04-23T01:20:15;13.90;99.90
15357;DHT22;7778;48.792;9.260;2023-04-23T01:23:03;13.80;99.90
15357;DHT22;7778;48.792;9.260;2023-04-23T01:25:48;13.80;99.90
15357;DHT22;7778;48.792;9.260;2023-04-23T01:28:34;13.90;99.90
15357;DHT22;7778;48.792;9.260;2023-04-23T01:31:20;13.90;99.90
15357;DHT22;7778;48.792;9.260;2023-04-23T01:34:06;13.80;99.90
15357;DHT22;7778;48.792;9.260;2023-04-23T01:36:53;13.60;99.90
15357;DHT22;7778;48.792;9.260;2023-04-23T01:39:40;13.50;99.90
15357;DHT22;7778;48.792;9.260;2023-04-23T01:42:26;13.60;99.90
15357;DHT22;7778;48.792;9.260;2023-04-23T01:45:12;13.60;99.90
15357;DHT22;7778;48.792;9.260;2023-04-23T01:47:58;13.70;99.90
15357;DHT22;7778;48.792;9.260;2023-04-23T01:50:45;13.80;99.90
15357;DHT22;7778;48.792;9.260;2023-04-23T01:53:30;13.80;99.90
15357;DHT22;7778;48.792;9.260;2023-04-23T01:56:19;13.80;99.90
15357;DHT22;7778;48.792;9.260;2023-04-23T01:59:08;13.90;99.90
15357;DHT22;7778;48.792;9.260;2023-04-23T02:01:54;13.90;99.90
15357;DHT22;7778;48.792;9.260;2023-04-23T02:04:40;14.00;99.90
15357;DHT22;7778;48.792;9.260;2023-04-23T02:07:27;14.00;99.90
15357;DHT22;7778;48.792;9.260;2023-04-23T02:10:12;14.00;99.90
15357;DHT22;7778;48.792;9.260;2023-04-23T02:13:01;13.90;99.90
15357;DHT22;7778;48.792;9.260;2023-04-23T02:15:47;13.90;99.90
15357;DHT22;7778;48.792;9.260;2023-04-23T02:18:33;13.90;99.90
15357;DHT22;7778;48.792;9.260;2023-04-23T02:21:18;13.70;99.90
15357;DHT22;7778;48.792;9.260;2023-04-23T02:24:04;13.70;99.90
15357;DHT22;7778;48.792;9.260;2023-04-23T02:26:49;13.70;99.90
15357;DHT22;7778;48.792;9.260;2023-04-23T02:29:36;13.80;99.90
15357;DHT22;7778;48.792;9.260;2023-04-23T02:32:22;13.80;99.90
15357;DHT22;7778;48.792;9.260;2023-04-23T02:35:08;13.80;99.90
15357;DHT22;7778;48.792;9.260;2023-04-23T02:37:54;13.70;99.90
15357;DHT22;7778;48.792;9.260;2023-04-23T02:40:40;13.70;99.90
15357;DHT22;7778;48.792;9.260;2023-04-23T02:43:26;13.80;99.90
15357;DHT22;7778;48.792;9.260;2023-04-23T02:46:13;13.70;99.90
15357;DHT22;7778;48.792;9.260;2023-04-23T02:48:59;13.60;99.90
15357;DHT22;7778;48.792;9.260;2023-04-23T02:51:45;13.70;99.90
15357;DHT22;7778;48.792;9.260;2023-04-23T02:54:31;13.70;99.90
15357;DHT22;7778;48.792;9.260;2023-04-23T02:57:16;13.60;99.90
15357;DHT22;7778;48.792;9.260;2023-04-23T03:00:02;13.60;99.90
15357;DHT22;7778;48.792;9.260;2023-04-23T03:02:51;13.50;99.90
15357;DHT22;7778;48.792;9.260;2023-04-23T03:05:37;13.50;99.90
15357;DHT22;7778;48.792;9.260;2023-04-23T03:08:22;13.40;99.90
15357;DHT22;7778;48.792;9.260;2023-04-23T03:11:08;13.40;99.90
15357;DHT22;7778;48.792;9.260;2023-04-23T03:13:53;13.30;99.90
15357;DHT22;7778;48.792;9.260;2023-04-23T03:16:39;13.40;99.90
15357;DHT22;7778;48.792;9.260;2023-04-23T03:19:26;13.30;99.90
15357;DHT22;7778;48.792;9.260;2023-04-23T03:22:11;13.20;99.90
15357;DHT22;7778;48.792;9.260;2023-04-23T03:24:57;13.30;99.90
15357;DHT22;7778;48.792;9.260;2023-04-23T03:27:42;13.20;99.90
15357;DHT22;7778;48.792;9.260;2023-04-23T03:30:28;12.90;99.90
15357;DHT22;7778;48.792;9.260;2023-04-23T03:33:14;12.70;99.90
15357;DHT22;7778;48.792;9.260;2023-04-23T03:36:01;12.90;99.90
15357;DHT22;7778;48.792;9.260;2023-04-23T03:38:47;12.80;99.90
15357;DHT22;7778;48.792;9.260;2023-04-23T03:41:32;12.70;99.90
15357;DHT22;7778;48.792;9.260;2023-04-23T03:44:18;12.80;99.90
15357;DHT22;7778;48.792;9.260;2023-04-23T03:47:04;12.70;99.90
15357;DHT22;7778;48.792;9.260;2023-04-23T03:49:50;12.80;99.90
15357;DHT22;7778;48.792;9.260;2023-04-23T03:52:37;12.80;99.90
15357;DHT22;7778;48.792;9.260;2023-04-23T03:55:22;12.70;99.90
15357;DHT22;7778;48.792;9.260;2023-04-23T03:58:08;12.60;99.90
15357;DHT22;7778;48.792;9.260;2023-04-23T04:00:53;12.60;99.90
15357;DHT22;7778;48.792;9.260;2023-04-23T04:03:39;12.50;99.90
15357;DHT22;7778;48.792;9.260;2023-04-23T04:06:24;12.60;99.90
15357;DHT22;7778;48.792;9.260;2023-04-23T04:09:11;12.70;99.90
15357;DHT22;7778;48.792;9.260;2023-04-23T04:11:57;12.60;99.90
15357;DHT22;7778;48.792;9.260;2023-04-23T04:14:42;12.70;99.90
15357;DHT22;7778;48.792;9.260;2023-04-23T04:17:29;12.50;99.90
15357;DHT22;7778;48.792;9.260;2023-04-23T04:20:14;12.40;99.90
15357;DHT22;7778;48.792;9.260;2023-04-23T04:23:00;12.30;99.90
15357;DHT22;7778;48.792;9.260;2023-04-23T04:25:46;12.50;99.90
15357;DHT22;7778;48.792;9.260;2023-04-23T04:28:34;12.50;99.90
15357;DHT22;7778;48.792;9.260;2023-04-23T04:31:20;12.60;99.90
15357;DHT22;7778;48.792;9.260;2023-04-23T04:34:06;12.60;99.90
15357;DHT22;7778;48.792;9.260;2023-04-23T04:36:53;12.50;99.90
15357;DHT22;7778;48.792;9.260;2023-04-23T04:39:39;12.60;99.90
15357;DHT22;7778;48.792;9.260;2023-04-23T04:42:26;12.50;99.90
15357;DHT22;7778;48.792;9.260;2023-04-23T04:45:12;12.40;99.90
15357;DHT22;7778;48.792;9.260;2023-04-23T04:47:57;12.30;99.90
15357;DHT22;7778;48.792;9.260;2023-04-23T04:50:43;12.40;99.90
15357;DHT22;7778;48.792;9.260;2023-04-23T04:53:30;12.40;99.90
15357;DHT22;7778;48.792;9.260;2023-04-23T04:56:15;12.40;99.90
15357;DHT22;7778;48.792;9.260;2023-04-23T04:59:03;12.20;99.90
15357;DHT22;7778;48.792;9.260;2023-04-23T05:01:48;12.00;99.90
15357;DHT22;7778;48.792;9.260;2023-04-23T05:04:34;12.20;99.90
15357;DHT22;7778;48.792;9.260;2023-04-23T05:07:19;12.10;99.90
15357;DHT22;7778;48.792;9.260;2023-04-23T05:10:05;12.30;99.90
15357;DHT22;7778;48.792;9.260;2023-04-23T05:12:52;12.50;99.90
15357;DHT22;7778;48.792;9.260;2023-04-23T05:15:38;12.60;99.90
15357;DHT22;7778;48.792;9.260;2023-04-23T05:18:24;12.80;99.90
15357;DHT22;7778;48.792;9.260;2023-04-23T05:21:10;12.80;99.90
15357;DHT22;7778;48.792;9.260;2023-04-23T05:23:55;12.80;99.90
15357;DHT22;7778;48.792;9.260;2023-04-23T05:26:41;12.90;99.90
15357;DHT22;7778;48.792;9.260;2023-04-23T05:29:26;13.00;99.90
15357;DHT22;7778;48.792;9.260;2023-04-23T05:32:13;12.90;99.90
15357;DHT22;7778;48.792;9.260;2023-04-23T05:34:59;13.00;99.90
15357;DHT22;7778;48.792;9.260;2023-04-23T05:37:45;13.10;99.90
15357;DHT22;7778;48.792;9.260;2023-04-23T05:40:31;13.00;99.90
15357;DHT22;7778;48.792;9.260;2023-04-23T05:43:17;13.00;99.90
15357;DHT22;7778;48.792;9.260;2023-04-23T05:46:02;13.10;99.90
15357;DHT22;7778;48.792;9.260;2023-04-23T05:48:51;13.00;99.90
15357;DHT22;7778;48.792;9.260;2023-04-23T05:51:37;13.20;99.90
15357;DHT22;7778;48.792;9.260;2023-04-23T05:54:23;13.30;99.90
15357;DHT22;7778;48.792;9.260;2023-04-23T05:57:08;13.40;99.90
15357;DHT22;7778;48.792;9.260;2023-04-23T05:59:55;14.00;99.90
15357;DHT22;7778;48.792;9.260;2023-04-23T06:02:40;14.60;99.90
15357;DHT22;7778;48.792;9.260;2023-04-23T06:05:27;14.70;99.90
15357;DHT22;7778;48.792;9.260;2023-04-23T06:08:13;14.90;99.90
15357;DHT22;7778;48.792;9.260;2023-04-23T06:10:58;15.20;99.90
15357;DHT22;7778;48.792;9.260;2023-04-23T06:13:44;15.10;99.90
15357;DHT22;7778;48.792;9.260;2023-04-23T06:16:30;15.20;99.90
15357;DHT22;7778;48.792;9.260;2023-04-23T06:19:16;15.60;99.90
15357;DHT22;7778;48.792;9.260;2023-04-23T06:22:03;15.80;99.90
15357;DHT22;7778;48.792;9.260;2023-04-23T06:24:48;15.20;99.90
15357;DHT22;7778;48.792;9.260;2023-04-23T06:27:34;14.90;99.90
15357;DHT22;7778;48.792;9.260;2023-04-23T06:30:20;14.60;99.90
15357;DHT22;7778;48.792;9.260;2023-04-23T06:33:07;14.40;99.90
15357;DHT22;7778;48.792;9.260;2023-04-23T06:35:53;14.30;99.90
15357;DHT22;7778;48.792;9.260;2023-04-23T06:38:40;14.50;99.90
15357;DHT22;7778;48.792;9.260;2023-04-23T06:41:25;14.40;99.90
15357;DHT22;7778;48.792;9.260;2023-04-23T06:44:11;14.30;99.90
15357;DHT22;7778;48.792;9.260;2023-04-23T06:46:57;14.20;99.90
15357;DHT22;7778;48.792;9.260;2023-04-23T06:49:43;14.30;99.90
15357;DHT22;7778;48.792;9.260;2023-04-23T06:52:29;14.30;99.90
15357;DHT22;7778;48.792;9.260;2023-04-23T06:55:15;14.90;99.90
15357;DHT22;7778;48.792;9.260;2023-04-23T06:58:01;16.00;99.90
15357;DHT22;7778;48.792;9.260;2023-04-23T07:00:46;16.90;99.90
15357;DHT22;7778;48.792;9.260;2023-04-23T07:03:32;17.90;99.90
15357;DHT22;7778;48.792;9.260;2023-04-23T07:06:19;18.50;99.90
15357;DHT22;7778;48.792;9.260;2023-04-23T07:09:04;18.70;99.90
15357;DHT22;7778;48.792;9.260;2023-04-23T07:11:51;18.00;99.90
15357;DHT22;7778;48.792;9.260;2023-04-23T07:14:37;18.70;99.90
15357;DHT22;7778;48.792;9.260;2023-04-23T07:17:22;19.00;99.90
15357;DHT22;7778;48.792;9.260;2023-04-23T07:20:08;19.60;99.90
15357;DHT22;7778;48.792;9.260;2023-04-23T07:22:54;20.50;99.90
15357;DHT22;7778;48.792;9.260;2023-04-23T07:25:40;21.60;99.90
15357;DHT22;7778;48.792;9.260;2023-04-23T07:28:27;22.10;99.90
15357;DHT22;7778;48.792;9.260;2023-04-23T07:31:12;21.90;99.90
15357;DHT22;7778;48.792;9.260;2023-04-23T07:33:58;22.50;99.90
15357;DHT22;7778;48.792;9.260;2023-04-23T07:36:44;23.10;99.90
15357;DHT22;7778;48.792;9.260;2023-04-23T07:39:30;21.90;99.90
15357;DHT22;7778;48.792;9.260;2023-04-23T07:42:16;21.20;99.90
15357;DHT22;7778;48.792;9.260;2023-04-23T07:45:04;21.30;99.90
15357;DHT22;7778;48.792;9.260;2023-04-23T07:47:50;21.90;99.90
15357;DHT22;7778;48.792;9.260;2023-04-23T07:50:36;22.40;99.90
15357;DHT22;7778;48.792;9.260;2023-04-23T07:53:21;23.00;99.90
15357;DHT22;7778;48.792;9.260;2023-04-23T07:56:07;23.30;99.90
15357;DHT22;7778;48.792;9.260;2023-04-23T07:58:53;21.70;99.90
15357;DHT22;7778;48.792;9.260;2023-04-23T08:01:40;21.20;99.90
15357;DHT22;7778;48.792;9.260;2023-04-23T08:04:26;20.60;99.90
15357;DHT22;7778;48.792;9.260;2023-04-23T08:07:19;20.90;99.90
15357;DHT22;7778;48.792;9.260;2023-04-23T08:10:08;21.20;99.90
15357;DHT22;7778;48.792;9.260;2023-04-23T08:12:54;22.60;99.90
15357;DHT22;7778;48.792;9.260;2023-04-23T08:15:39;21.70;99.90
15357;DHT22;7778;48.792;9.260;2023-04-23T08:18:26;20.90;99.90
15357;DHT22;7778;48.792;9.260;2023-04-23T08:21:12;20.80;99.90
15357;DHT22;7778;48.792;9.260;2023-04-23T08:23:58;20.50;99.90
15357;DHT22;7778;48.792;9.260;2023-04-23T08:26:52;20.70;99.90
15357;DHT22;7778;48.792;9.260;2023-04-23T08:29:40;21.40;99.90
15357;DHT22;7778;48.792;9.260;2023-04-23T08:32:26;21.80;99.90
15357;DHT22;7778;48.792;9.260;2023-04-23T08:35:15;22.40;99.90
15357;DHT22;7778;48.792;9.260;2023-04-23T08:38:01;22.30;99.90
15357;DHT22;7778;48.792;9.260;2023-04-23T08:40:48;21.50;99.90
15357;DHT22;7778;48.792;9.260;2023-04-23T08:43:43;20.50;99.90
15357;DHT22;7778;48.792;9.260;2023-04-23T08:46:31;20.00;99.90
15357;DHT22;7778;48.792;9.260;2023-04-23T08:49:19;19.80;99.90
15357;DHT22;7778;48.792;9.260;2023-04-23T08:52:13;19.20;99.90
15357;DHT22;7778;48.792;9.260;2023-04-23T08:55:04;19.10;99.90
15357;DHT22;7778;48.792;9.260;2023-04-23T08:57:53;20.00;99.90
15357;DHT22;7778;48.792;9.260;2023-04-23T09:00:42;19.70;99.90
15357;DHT22;7778;48.792;9.260;2023-04-23T09:03:28;19.40;99.90
15357;DHT22;7778;48.792;9.260;2023-04-23T09:06:14;19.60;99.90
15357;DHT22;7778;48.792;9.260;2023-04-23T09:09:02;19.40;99.90
15357;DHT22;7778;48.792;9.260;2023-04-23T09:11:50;18.70;99.90
15357;DHT22;7778;48.792;9.260;2023-04-23T09:14:41;18.90;99.90
15357;DHT22;7778;48.792;9.260;2023-04-23T09:17:30;19.40;99.90
15357;DHT22;7778;48.792;9.260;2023-04-23T09:20:20;19.60;99.90
15357;DHT22;7778;48.792;9.260;2023-04-23T09:23:07;19.70;99.90
15357;DHT22;7778;48.792;9.260;2023-04-23T09:25:55;20.00;99.90
15357;DHT22;7778;48.792;9.260;2023-04-23T09:28:43;20.30;99.90
15357;DHT22;7778;48.792;9.260;2023-04-23T09:31:35;20.80;99.90
15357;DHT22;7778;48.792;9.260;2023-04-23T09:34:24;20.70;99.90
15357;DHT22;7778;48.792;9.260;2023-04-23T09:37:13;20.80;99.90
15357;DHT22;7778;48.792;9.260;2023-04-23T09:40:05;21.40;99.90
15357;DHT22;7778;48.792;9.260;2023-04-23T09:42:58;21.70;99.90
15357;DHT22;7778;48.792;9.260;2023-04-23T09:45:48;22.20;99.90
15357;DHT22;7778;48.792;9.260;2023-04-23T09:48:39;22.50;99.90
15357;DHT22;7778;48.792;9.260;2023-04-23T09:51:28;23.50;99.90
15357;DHT22;7778;48.792;9.260;2023-04-23T09:54:16;24.20;99.90
15357;DHT22;7778;48.792;9.260;2023-04-23T09:57:04;23.90;99.90
15357;DHT22;7778;48.792;9.260;2023-04-23T09:59:55;24.50;99.90
15357;DHT22;7778;48.792;9.260;2023-04-23T10:02:45;25.40;99.90
15357;DHT22;7778;48.792;9.260;2023-04-23T10:05:37;25.10;98.10
15357;DHT22;7778;48.792;9.260;2023-04-23T10:08:24;24.50;99.10
15357;DHT22;7778;48.792;9.260;2023-04-23T10:11:10;23.70;98.60
15357;DHT22;7778;48.792;9.260;2023-04-23T10:13:56;23.00;99.90
15357;DHT22;7778;48.792;9.260;2023-04-23T10:16:45;23.10;99.90
15357;DHT22;7778;48.792;9.260;2023-04-23T10:19:32;23.40;99.90
15357;DHT22;7778;48.792;9.260;2023-04-23T10:22:18;23.10;99.90
15357;DHT22;7778;48.792;9.260;2023-04-23T10:25:09;23.50;99.80
15357;DHT22;7778;48.792;9.260;2023-04-23T10:27:57;24.40;99.90
15357;DHT22;7778;48.792;9.260;2023-04-23T10:30:43;23.90;96.40
15357;DHT22;7778;48.792;9.260;2023-04-23T10:33:31;22.70;98.70
15357;DHT22;7778;48.792;9.260;2023-04-23T10:36:18;21.90;99.90
15357;DHT22;7778;48.792;9.260;2023-04-23T10:39:04;20.60;99.90
15357;DHT22;7778;48.792;9.260;2023-04-23T10:41:51;20.70;99.90
15357;DHT22;7778;48.792;9.260;2023-04-23T10:44:40;20.50;99.90
15357;DHT22;7778;48.792;9.260;2023-04-23T10:47:27;20.30;99.90
15357;DHT22;7778;48.792;9.260;2023-04-23T10:50:22;19.90;99.90
15357;DHT22;7778;48.792;9.260;2023-04-23T10:53:17;20.60;99.90
15357;DHT22;7778;48.792;9.260;2023-04-23T10:56:05;21.10;99.90
15357;DHT22;7778;48.792;9.260;2023-04-23T10:58:51;20.80;99.90
15357;DHT22;7778;48.792;9.260;2023-04-23T11:01:38;21.30;99.90
15357;DHT22;7778;48.792;9.260;2023-04-23T11:04:25;21.40;99.90
15357;DHT22;7778;48.792;9.260;2023-04-23T11:07:13;22.00;99.90
15357;DHT22;7778;48.792;9.260;2023-04-23T11:09:59;22.40;99.90
15357;DHT22;7778;48.792;9.260;2023-04-23T11:12:45;22.50;99.60
15357;DHT22;7778;48.792;9.260;2023-04-23T11:15:31;22.40;98.50
15357;DHT22;7778;48.792;9.260;2023-04-23T11:18:17;22.50;99.90
15357;DHT22;7778;48.792;9.260;2023-04-23T11:21:03;22.70;98.80
15357;DHT22;7778;48.792;9.260;2023-04-23T11:23:50;22.90;98.20
15357;DHT22;7778;48.792;9.260;2023-04-23T11:26:36;22.50;98.00
15357;DHT22;7778;48.792;9.260;2023-04-23T11:29:24;22.40;96.70
15357;DHT22;7778;48.792;9.260;2023-04-23T11:32:12;22.60;99.70
15357;DHT22;7778;48.792;9.260;2023-04-23T11:35:01;23.30;99.60
15357;DHT22;7778;48.792;9.260;2023-04-23T11:37:48;23.10;95.90
15357;DHT22;7778;48.792;9.260;2023-04-23T11:40:36;23.00;98.10
15357;DHT22;7778;48.792;9.260;2023-04-23T11:43:23;23.40;97.90
15357;DHT22;7778;48.792;9.260;2023-04-23T11:46:13;23.50;95.70
15357;DHT22;7778;48.792;9.260;2023-04-23T11:48:59;23.40;96.60
15357;DHT22;7778;48.792;9.260;2023-04-23T11:51:46;23.50;95.30
15357;DHT22;7778;48.792;9.260;2023-04-23T11:54:32;23.30;95.70
15357;DHT22;7778;48.792;9.260;2023-04-23T11:57:20;22.80;94.20
15357;DHT22;7778;48.792;9.260;2023-04-23T12:00:14;22.10;95.80
15357;DHT22;7778;48.792;9.260;2023-04-23T12:03:02;22.30;99.20
15357;DHT22;7778;48.792;9.260;2023-04-23T12:05:48;22.00;97.30
15357;DHT22;7778;48.792;9.260;2023-04-23T12:08:34;21.10;96.70
15357;DHT22;7778;48.792;9.260;2023-04-23T12:11:23;21.10;99.30
15357;DHT22;7778;48.792;9.260;2023-04-23T12:14:11;21.50;97.20
15357;DHT22;7778;48.792;9.260;2023-04-23T12:17:08;21.70;98.90
15357;DHT22;7778;48.792;9.260;2023-04-23T12:19:54;21.70;96.90
15357;DHT22;7778;48.792;9.260;2023-04-23T12:22:39;21.20;97.70
15357;DHT22;7778;48.792;9.260;2023-04-23T12:25:25;21.20;97.30
15357;DHT22;7778;48.792;9.260;2023-04-23T12:28:11;20.70;99.20
15357;DHT22;7778;48.792;9.260;2023-04-23T12:31:01;20.90;99.90
15357;DHT22;7778;48.792;9.260;2023-04-23T12:33:46;21.30;98.90
15357;DHT22;7778;48.792;9.260;2023-04-23T12:36:38;21.50;97.10
15357;DHT22;7778;48.792;9.260;2023-04-23T12:39:26;21.20;96.60
15357;DHT22;7778;48.792;9.260;2023-04-23T12:42:13;21.30;97.00
15357;DHT22;7778;48.792;9.260;2023-04-23T12:45:05;21.30;97.70
15357;DHT22;7778;48.792;9.260;2023-04-23T12:47:53;21.40;99.90
15357;DHT22;7778;48.792;9.260;2023-04-23T12:50:39;21.90;99.80
15357;DHT22;7778;48.792;9.260;2023-04-23T12:53:25;22.30;99.90
15357;DHT22;7778;48.792;9.260;2023-04-23T12:56:11;22.60;99.80
15357;DHT22;7778;48.792;9.260;2023-04-23T12:58:57;22.50;96.90
15357;DHT22;7778;48.792;9.260;2023-04-23T13:01:44;21.90;96.90
15357;DHT22;7778;48.792;9.260;2023-04-23T13:04:32;21.50;97.70
15357;DHT22;7778;48.792;9.260;2023-04-23T13:07:23;21.00;97.40
15357;DHT22;7778;48.792;9.260;2023-04-23T13:10:09;20.70;98.60
15357;DHT22;7778;48.792;9.260;2023-04-23T13:12:55;20.70;98.10
15357;DHT22;7778;48.792;9.260;2023-04-23T13:15:41;20.30;98.30
15357;DHT22;7778;48.792;9.260;2023-04-23T13:18:26;20.50;98.80
15357;DHT22;7778;48.792;9.260;2023-04-23T13:21:13;20.30;98.30
15357;DHT22;7778;48.792;9.260;2023-04-23T13:23:59;20.30;99.90
15357;DHT22;7778;48.792;9.260;2023-04-23T13:26:45;20.10;98.30
15357;DHT22;7778;48.792;9.260;2023-04-23T13:29:30;19.80;98.80
15357;DHT22;7778;48.792;9.260;2023-04-23T13:32:16;20.10;99.90
15357;DHT22;7778;48.792;9.260;2023-04-23T13:35:02;20.60;99.90
15357;DHT22;7778;48.792;9.260;2023-04-23T13:37:49;20.70;99.50
15357;DHT22;7778;48.792;9.260;2023-04-23T13:40:36;21.00;99.20
15357;DHT22;7778;48.792;9.260;2023-04-23T13:43:22;21.00;99.10
15357;DHT22;7778;48.792;9.260;2023-04-23T13:46:08;20.80;99.60
15357;DHT22;7778;48.792;9.260;2023-04-23T13:48:54;20.80;99.80
15357;DHT22;7778;48.792;9.260;2023-04-23T13:51:40;20.80;98.10
15357;DHT22;7778;48.792;9.260;2023-04-23T13:54:27;21.00;99.30
15357;DHT22;7778;48.792;9.260;2023-04-23T13:57:13;21.20;96.90
15357;DHT22;7778;48.792;9.260;2023-04-23T13:59:58;21.60;96.40
15357;DHT22;7778;48.792;9.260;2023-04-23T14:02:44;21.70;94.50
15357;DHT22;7778;48.792;9.260;2023-04-23T14:05:29;21.70;92.90
15357;DHT22;7778;48.792;9.260;2023-04-23T14:08:15;21.50;94.10
15357;DHT22;7778;48.792;9.260;2023-04-23T14:11:02;21.50;94.60
15357;DHT22;7778;48.792;9.260;2023-04-23T14:13:48;21.60;94.00
15357;DHT22;7778;48.792;9.260;2023-04-23T14:16:34;21.60;94.40
15357;DHT22;7778;48.792;9.260;2023-04-23T14:19:19;21.80;95.10
15357;DHT22;7778;48.792;9.260;2023-04-23T14:22:05;21.70;93.30
15357;DHT22;7778;48.792;9.260;2023-04-23T14:24:56;21.20;93.20
15357;DHT22;7778;48.792;9.260;2023-04-23T14:27:49;21.20;93.90
15357;DHT22;7778;48.792;9.260;2023-04-23T14:30:36;21.20;95.40
15357;DHT22;7778;48.792;9.260;2023-04-23T14:33:25;21.10;95.40
15357;DHT22;7778;48.792;9.260;2023-04-23T14:36:10;21.20;96.20
15357;DHT22;7778;48.792;9.260;2023-04-23T14:38:56;21.10;96.30
15357;DHT22;7778;48.792;9.260;2023-04-23T14:41:48;21.00;97.00
15357;DHT22;7778;48.792;9.260;2023-04-23T14:44:35;20.90;97.00
15357;DHT22;7778;48.792;9.260;2023-04-23T14:47:20;21.00;97.10
15357;DHT22;7778;48.792;9.260;2023-04-23T14:50:07;21.00;97.30
15357;DHT22;7778;48.792;9.260;2023-04-23T14:52:53;20.80;96.60
15357;DHT22;7778;48.792;9.260;2023-04-23T14:55:39;20.80;96.60
15357;DHT22;7778;48.792;9.260;2023-04-23T14:58:26;21.00;98.20
15357;DHT22;7778;48.792;9.260;2023-04-23T15:01:13;21.20;97.90
15357;DHT22;7778;48.792;9.260;2023-04-23T15:03:58;21.30;97.40
15357;DHT22;7778;48.792;9.260;2023-04-23T15:06:44;21.20;96.20
15357;DHT22;7778;48.792;9.260;2023-04-23T15:09:29;21.10;95.60
15357;DHT22;7778;48.792;9.260;2023-04-23T15:12:36;20.90;96.10
15357;DHT22;7778;48.792;9.260;2023-04-23T15:15:37;20.90;95.80
15357;DHT22;7778;48.792;9.260;2023-04-23T15:18:29;21.00;95.60
15357;DHT22;7778;48.792;9.260;2023-04-23T15:21:16;21.10;95.70
15357;DHT22;7778;48.792;9.260;2023-04-23T15:24:02;21.10;95.60
15357;DHT22;7778;48.792;9.260;2023-04-23T15:26:48;21.10;95.50
15357;DHT22;7778;48.792;9.260;2023-04-23T15:29:36;21.20;96.90
15357;DHT22;7778;48.792;9.260;2023-04-23T15:32:22;21.40;96.90
15357;DHT22;7778;48.792;9.260;2023-04-23T15:35:09;21.50;96.20
15357;DHT22;7778;48.792;9.260;2023-04-23T15:37:55;21.50;94.40
15357;DHT22;7778;48.792;9.260;2023-04-23T15:40:40;21.30;95.10
15357;DHT22;7778;48.792;9.260;2023-04-23T15:43:26;21.20;93.30
15357;DHT22;7778;48.792;9.260;2023-04-23T15:46:11;21.10;94.00
15357;DHT22;7778;48.792;9.260;2023-04-23T15:48:57;20.60;95.10
15357;DHT22;7778;48.792;9.260;2023-04-23T15:51:44;20.30;97.70
15357;DHT22;7778;48.792;9.260;2023-04-23T15:54:30;19.80;99.90
15357;DHT22;7778;48.792;9.260;2023-04-23T15:57:15;19.10;99.90
15357;DHT22;7778;48.792;9.260;2023-04-23T16:00:01;18.70;99.90
15357;DHT22;7778;48.792;9.260;2023-04-23T16:02:46;18.60;99.90
15357;DHT22;7778;48.792;9.260;2023-04-23T16:05:32;18.90;99.90
15357;DHT22;7778;48.792;9.260;2023-04-23T16:08:20;18.80;99.90
15357;DHT22;7778;48.792;9.260;2023-04-23T16:11:06;18.90;99.90
15357;DHT22;7778;48.792;9.260;2023-04-23T16:13:52;18.70;99.90
15357;DHT22;7778;48.792;9.260;2023-04-23T16:16:39;18.30;99.90
15357;DHT22;7778;48.792;9.260;2023-04-23T16:19:24;18.00;99.90
15357;DHT22;7778;48.792;9.260;2023-04-23T16:22:11;17.90;99.90
15357;DHT22;7778;48.792;9.260;2023-04-23T16:24:59;18.20;99.90
15357;DHT22;7778;48.792;9.260;2023-04-23T16:27:44;18.20;99.90
15357;DHT22;7778;48.792;9.260;2023-04-23T16:30:30;18.30;99.90
15357;DHT22;7778;48.792;9.260;2023-04-23T16:33:16;18.20;99.90
15357;DHT22;7778;48.792;9.260;2023-04-23T16:36:02;18.00;99.90
15357;DHT22;7778;48.792;9.260;2023-04-23T16:38:48;17.90;99.90
15357;DHT22;7778;48.792;9.260;2023-04-23T16:41:35;17.70;99.90
15357;DHT22;7778;48.792;9.260;2023-04-23T16:44:20;17.40;99.90
15357;DHT22;7778;48.792;9.260;2023-04-23T16:47:06;16.70;99.90
15357;DHT22;7778;48.792;9.260;2023-04-23T16:49:52;16.20;99.90
15357;DHT22;7778;48.792;9.260;2023-04-23T16:52:37;15.70;99.90
15357;DHT22;7778;48.792;9.260;2023-04-23T16:55:24;15.50;99.90
15357;DHT22;7778;48.792;9.260;2023-04-23T16:58:11;15.60;99.90
15357;DHT22;7778;48.792;9.260;2023-04-23T17:00:57;15.50;99.90
15357;DHT22;7778;48.792;9.260;2023-04-23T17:03:43;15.20;99.90
15357;DHT22;7778;48.792;9.260;2023-04-23T17:06:29;15.30;99.90
15357;DHT22;7778;48.792;9.260;2023-04-23T17:09:16;15.50;99.90
15357;DHT22;7778;48.792;9.260;2023-04-23T17:12:02;15.70;99.90
15357;DHT22;7778;48.792;9.260;2023-04-23T17:14:50;15.90;99.90
15357;DHT22;7778;48.792;9.260;2023-04-23T17:17:37;16.00;99.90
15357;DHT22;7778;48.792;9.260;2023-04-23T17:20:25;16.10;99.90
15357;DHT22;7778;48.792;9.260;2023-04-23T17:23:12;16.30;99.90
15357;DHT22;7778;48.792;9.260;2023-04-23T17:25:57;16.20;99.90
15357;DHT22;7778;48.792;9.260;2023-04-23T17:28:43;16.00;99.90
15357;DHT22;7778;48.792;9.260;2023-04-23T17:31:30;15.90;99.90
15357;DHT22;7778;48.792;9.260;2023-04-23T17:34:16;15.90;99.90
15357;DHT22;7778;48.792;9.260;2023-04-23T17:37:01;15.90;99.90
15357;DHT22;7778;48.792;9.260;2023-04-23T17:39:47;15.60;99.90
15357;DHT22;7778;48.792;9.260;2023-04-23T17:42:32;15.50;99.90
15357;DHT22;7778;48.792;9.260;2023-04-23T17:45:18;15.50;99.90
15357;DHT22;7778;48.792;9.260;2023-04-23T17:48:05;15.40;99.90
15357;DHT22;7778;48.792;9.260;2023-04-23T17:50:50;15.30;99.90